Time;durP1;ratioP1;P1;durP2;ratioP2;P2;SDS_P1;SDS_P2;PMS_P1;PMS_P2;Temp;Humidity;BMP_temperature;BMP_pressure;BME280_temperature;BME280_humidity;BME280_pressure;Samples;Min_cycle;Max_cycle;Signal;HPM_P1;HPM_P2
2021/10/19 00:04:46;;;;;;;18.85;15.6;;;;;;;6.941991;81.471;99753;;;;
2021/10/19 00:14:41;;;;;;;24.2;20.7;;;;;;;6.861952;82.14578;99755;;;;
2021/10/19 00:24:41;;;;;;;23.4;16.4;;;;;;;6.902029;82.57172;99757;;;;
2021/10/19 00:44:37;;;;;;;16.8;15.1;;;;;;;7.142181;83.06711;99767;;;;
2021/10/19 00:54:36;;;;;;;18.8;14.5;;;;;;;7.251915;83.13392;99767;;;;
2021/10/19 01:04:34;;;;;;;18.7;15.15;;;;;;;7.331684;82.9257;99765;;;;
2021/10/19 01:14:33;;;;;;;20.2;13.4;;;;;;;7.4;82.532;99757;;;;
2021/10/19 01:24:31;;;;;;;18.85;12.75;;;;;;;7.512105;83.01796;99746;;;;
2021/10/19 01:34:36;;;;;;;15.9;13.2;;;;;;;7.611914;82.70322;99742;;;;
2021/10/19 01:44:29;;;;;;;15.4;12.5;;;;;;;7.592219;82.47968;99722;;;;
2021/10/19 01:54:28;;;;;;;14.8;11.5;;;;;;;7.661761;82.34783;99716;;;;
2021/10/19 02:04:27;;;;;;;14.1;11.3;;;;;;;7.831838;82.31969;99712;;;;
2021/10/19 02:14:25;;;;;;;13.06667;10.83333;;;;;;;7.941876;82.10356;99708;;;;
2021/10/19 02:24:24;;;;;;;13.8;10;;;;;;;7.96199;81.28345;99701;;;;
2021/10/19 02:34:23;;;;;;;13.2;10.3;;;;;;;7.852105;81.46411;99695;;;;
2021/10/19 02:44:26;;;;;;;12.05;9.85;;;;;;;7.802029;81.42593;99699;;;;
2021/10/19 02:54:20;;;;;;;12.26667;10.26667;;;;;;;7.762029;81.38508;99697;;;;
2021/10/19 03:14:18;;;;;;;12.1;10.8;;;;;;;7.742181;81.15585;99697;;;;
2021/10/19 03:24:16;;;;;;;12.16667;10;;;;;;;7.691838;81.11477;99689;;;;
2021/10/19 03:44:13;;;;;;;9.5;6.8;;;;;;;7.772105;80.70352;99693;;;;
2021/10/19 03:54:12;;;;;;;10.6;8.3;;;;;;;7.63199;80.78084;99687;;;;
2021/10/19 04:04:11;;;;;;;11.4;8.8;;;;;;;7.522257;80.54311;99677;;;;
2021/10/19 04:24:12;;;;;;;20;15.2;;;;;;;6.562181;80.61635;99691;;;;
2021/10/19 04:34:07;;;;;;;15.5;14;;;;;;;6.261723;81.31489;99687;;;;
2021/10/19 04:44:05;;;;;;;19.9;16;;;;;;;6.031684;82.30801;99683;;;;
2021/10/19 04:54:03;;;;;;;20.03333;16.76667;;;;;;;5.761838;82.10328;99683;;;;
2021/10/19 05:04:02;;;;;;;21.76667;17.66667;;;;;;;5.612143;83.11456;99675;;;;
2021/10/19 05:14:01;;;;;;;20.13333;17.5;;;;;;;5.541761;83.84639;99683;;;;
2021/10/19 05:23:59;;;;;;;18.6;15.6;;;;;;;5.292143;83.53191;99693;;;;
2021/10/19 05:33:58;;;;;;;18;16.1;;;;;;;5.192181;83.46255;99697;;;;
2021/10/19 05:43:56;;;;;;;23.7;16.8;;;;;;;5.131799;83.74572;99706;;;;
2021/10/19 05:53:54;;;;;;;29.4;18.55;;;;;;;5.232181;84.42233;99722;;;;
2021/10/19 06:03:52;;;;;;;26;19.4;;;;;;;5.381876;84.39257;99728;;;;
2021/10/19 06:13:51;;;;;;;19.5;17.5;;;;;;;5.552181;84.72568;99748;;;;
2021/10/19 06:23:50;;;;;;;25.1;22.6;;;;;;;5.861876;84.83368;99761;;;;
2021/10/19 06:33:48;;;;;;;26.6;21.3;;;;;;;6.232105;85.06445;99757;;;;
2021/10/19 06:43:46;;;;;;;26.9;19.1;;;;;;;6.641838;85.3043;99738;;;;
2021/10/19 06:53:45;;;;;;;19.6;13.2;;;;;;;7.221991;85.44994;99738;;;;
2021/10/19 07:03:43;;;;;;;13;9.9;;;;;;;8.011991;84.1353;99738;;;;
2021/10/19 07:13:42;;;;;;;12.9;9.35;;;;;;;8.572029;83.15444;99738;;;;
2021/10/19 07:23:41;;;;;;;12;10.2;;;;;;;9.071838;80.472;99730;;;;
2021/10/19 07:33:40;;;;;;;11.35;9.9;;;;;;;9.491799;77.93118;99722;;;;
2021/10/19 07:53:37;;;;;;;10.8;9.6;;;;;;;10.37214;76.72235;99712;;;;
2021/10/19 08:03:36;;;;;;;10.75;8.3;;;;;;;10.89188;75.29546;99716;;;;
2021/10/19 08:13:35;;;;;;;8.4;5.3;;;;;;;11.47;74.199;99706;;;;
2021/10/19 08:23:34;;;;;;;6.1;4.4;;;;;;;12.17218;70.59555;99704;;;;
2021/10/19 08:33:34;;;;;;;9.15;4.95;;;;;;;12.69214;69.71838;99706;;;;
2021/10/19 08:43:33;;;;;;;8.866666;5.233333;;;;;;;13.12218;68.1983;99720;;;;
2021/10/19 08:53:33;;;;;;;9.133332;5.266666;;;;;;;13.50207;66.03106;99722;;;;
2021/10/19 09:03:32;;;;;;;6.966666;4.8;;;;;;;13.72207;64.63309;99708;;;;
2021/10/19 09:13:31;;;;;;;6.266666;4.366666;;;;;;;14.17172;66.25073;99704;;;;
2021/10/19 09:23:30;;;;;;;7.4;4.7;;;;;;;14.77222;63.27006;99706;;;;
2021/10/19 09:33:30;;;;;;;9.95;5.45;;;;;;;15.25207;62.51556;99708;;;;
2021/10/19 09:43:30;;;;;;;10;6.6;;;;;;;15.69191;61.18066;99706;;;;
2021/10/19 09:53:29;;;;;;;14.2;9.9;;;;;;;15.75222;60.13076;99691;;;;
2021/10/19 10:03:29;;;;;;;14.8;10;;;;;;;15.89218;59.76601;99693;;;;
2021/10/19 10:23:31;;;;;;;7.1;5.7;;;;;;;16.53203;58.4582;99660;;;;
2021/10/19 10:33:28;;;;;;;8.4;6.2;;;;;;;16.62214;57.66864;99644;;;;
2021/10/19 10:43:29;;;;;;;8.5;5.7;;;;;;;16.89191;57.88523;99636;;;;
2021/10/19 10:53:28;;;;;;;7;4.55;;;;;;;17.04199;57.24327;99626;;;;
2021/10/19 11:03:30;;;;;;;6.5;4;;;;;;;17.03191;55.1824;99622;;;;
2021/10/19 11:23:27;;;;;;;5;2.9;;;;;;;17.12203;56.18313;99593;;;;
2021/10/19 11:33:27;;;;;;;3.8;2.2;;;;;;;17.36207;54.8089;99581;;;;
2021/10/19 11:53:27;;;;;;;5.4;2.7;;;;;;;17.63199;53.8555;99536;;;;
2021/10/19 12:03:26;;;;;;;6.6;3;;;;;;;17.64207;52.42309;99532;;;;
2021/10/19 12:13:27;;;;;;;5.8;2.1;;;;;;;17.79199;51.06849;99497;;;;
2021/10/19 12:33:26;;;;;;;6;2.1;;;;;;;18.17195;53.69612;99473;;;;
2021/10/19 12:43:26;;;;;;;7.6;2.05;;;;;;;18.35226;49.25412;99473;;;;
2021/10/19 12:53:26;;;;;;;6.7;3.4;;;;;;;18.34199;49.31357;99461;;;;
2021/10/19 13:03:27;;;;;;;2.2;0.9;;;;;;;18.31172;47.1284;99440;;;;
2021/10/19 13:13:26;;;;;;;3.35;1.25;;;;;;;18.2721;48.18149;99436;;;;
2021/10/19 13:23:28;;;;;;;2.3;1;;;;;;;18.26211;48.03218;99450;;;;
2021/10/19 13:33:26;;;;;;;3;1.6;;;;;;;17.98191;46.70714;99438;;;;
2021/10/19 13:43:26;;;;;;;4;1.55;;;;;;;17.72184;47.7102;99426;;;;
2021/10/19 13:53:29;;;;;;;3.566667;1.533333;;;;;;;17.98191;49.25452;99420;;;;
2021/10/19 14:03:29;;;;;;;3;1.4;;;;;;;18.29207;48.05087;99428;;;;
2021/10/19 14:13:26;;;;;;;11.8;2.8;;;;;;;18.47191;46.54694;99422;;;;
2021/10/19 14:23:26;;;;;;;5.7;2.7;;;;;;;18.5318;46.02355;99418;;;;
2021/10/19 14:33:25;;;;;;;5;3.2;;;;;;;18.38172;45.89681;99424;;;;
2021/10/19 14:43:25;;;;;;;4.7;2.6;;;;;;;18.02176;47.69794;99412;;;;
2021/10/19 14:53:25;;;;;;;5.85;2.9;;;;;;;17.55184;49.00983;99383;;;;
2021/10/19 15:03:25;;;;;;;5.766666;2.966666;;;;;;;17.0018;50.87213;99375;;;;
2021/10/19 15:33:31;;;;;;;11.8;4.8;;;;;;;15.70176;53.75377;99397;;;;
2021/10/19 15:43:24;;;;;;;8.2;4.5;;;;;;;15.27214;54.94241;99401;;;;
2021/10/19 20:07:37;;;;;;;12.2;9.7;;;;;;;10.51;68.346;99344;;;;
2021/10/19 20:17:36;;;;;;;13.05;9.2;;;;;;;10.2921;67.20827;99346;;;;
2021/10/19 20:27:35;;;;;;;10.4;8.3;;;;;;;10.3318;66.7949;99338;;;;
2021/10/19 20:37:33;;;;;;;13;7.5;;;;;;;10.1918;67.06895;99336;;;;
2021/10/19 20:47:33;;;;;;;14.9;8.3;;;;;;;10.31176;66.78179;99328;;;;
2021/10/19 20:57:32;;;;;;;9.7;7.4;;;;;;;10.23195;66.58784;99322;;;;
2021/10/19 21:07:30;;;;;;;10.9;7.6;;;;;;;10.28172;66.54719;99316;;;;
2021/10/19 21:17:29;;;;;;;15.15;8;;;;;;;10.30191;66.42043;99305;;;;
2021/10/19 21:27:28;;;;;;;15.13333;8.166667;;;;;;;10.36176;65.91629;99293;;;;
2021/10/19 21:37:27;;;;;;;9.7;7.6;;;;;;;10.36222;65.87594;99283;;;;
2021/10/19 21:47:26;;;;;;;14.5;6.7;;;;;;;10.34191;65.8866;99277;;;;
2021/10/19 21:57:25;;;;;;;12.4;6.85;;;;;;;10.42218;65.61514;99277;;;;
2021/10/19 22:07:26;;;;;;;11.53333;6.666667;;;;;;;10.3718;65.78802;99259;;;;
2021/10/19 22:17:23;;;;;;;7;4.6;;;;;;;10.47207;65.38455;99245;;;;
2021/10/19 22:27:24;;;;;;;8.65;5.3;;;;;;;10.65222;64.55729;99234;;;;
2021/10/19 22:37:21;;;;;;;9.2;5.366667;;;;;;;10.73214;64.93038;99222;;;;
2021/10/19 22:47:20;;;;;;;9.7;5.6;;;;;;;10.64191;64.69449;99216;;;;
2021/10/19 22:57:20;;;;;;;8.6;5.35;;;;;;;10.55176;65.39747;99210;;;;
2021/10/19 23:07:23;;;;;;;9.2;6.1;;;;;;;10.67172;64.49396;99210;;;;
2021/10/19 23:17:17;;;;;;;8.65;5.35;;;;;;;10.66188;65.05598;99195;;;;
2021/10/19 23:27:16;;;;;;;8.4;5.033333;;;;;;;10.75218;64.67416;99189;;;;
2021/10/19 23:37:15;;;;;;;7.833334;4.5;;;;;;;10.81211;64.34872;99179;;;;
2021/10/19 23:47:14;;;;;;;7.3;4.7;;;;;;;10.82172;64.79369;99173;;;;
2021/10/19 23:57:13;;;;;;;10.5;3.1;;;;;;;10.99203;64.1536;99161;;;;
